createdAt,value
2023-03-26T02:49:53.500Z,2.40
2023-03-26T02:52:26.610Z,2.28
2023-03-26T02:54:57.183Z,2.00
2023-03-26T02:57:26.192Z,2.83
2023-03-26T03:00:17.297Z,2.50
2023-03-26T03:02:50.523Z,2.72
2023-03-26T03:05:33.733Z,3.10
2023-03-26T03:08:18.356Z,2.88
2023-03-26T03:11:22.218Z,2.30
2023-03-26T03:13:52.021Z,2.50
2023-03-26T03:16:22.611Z,2.28
2023-03-26T03:18:54.661Z,2.70
2023-03-26T03:21:28.313Z,2.35
2023-03-26T03:23:56.263Z,2.17
2023-03-26T03:26:30.729Z,2.20
2023-03-26T03:29:03.274Z,2.22
2023-03-26T03:31:30.843Z,2.47
2023-03-26T03:34:03.046Z,2.30
2023-03-26T03:36:33.524Z,3.63
2023-03-26T03:39:07.352Z,3.78
2023-03-26T03:41:35.730Z,4.00
2023-03-26T03:44:06.150Z,4.60
2023-03-26T03:46:34.602Z,4.03
2023-03-26T03:49:02.382Z,4.40
2023-03-26T03:51:35.231Z,5.28
2023-03-26T03:54:13.115Z,5.10
2023-03-26T03:56:47.428Z,4.63
2023-03-26T03:59:15.512Z,4.20
2023-03-26T04:01:46.787Z,4.03
2023-03-26T04:04:24.724Z,3.78
2023-03-26T04:06:57.953Z,4.07
2023-03-26T04:09:28.587Z,3.90
2023-03-26T04:12:00.252Z,5.18
2023-03-26T04:14:42.243Z,5.15
2023-03-26T04:17:15.435Z,4.90
2023-03-26T04:19:44.250Z,5.28
2023-03-26T04:22:13.468Z,4.47
2023-03-26T04:24:54.453Z,5.28
2023-03-26T04:27:38.134Z,4.80
2023-03-26T04:30:20.912Z,4.78
2023-03-26T04:33:06.445Z,4.85
2023-03-26T04:35:37.983Z,5.03
2023-03-26T04:38:09.796Z,5.15
2023-03-26T04:40:39.777Z,4.88
2023-03-26T04:43:35.640Z,5.97
2023-03-26T04:46:05.567Z,5.80
2023-03-26T04:48:41.493Z,5.05
2023-03-26T04:51:10.213Z,5.28
2023-03-26T04:53:37.726Z,5.10
2023-03-26T04:56:59.596Z,5.72
2023-03-26T04:59:41.333Z,6.95
2023-03-26T05:02:13.076Z,5.88
2023-03-26T05:04:57.195Z,4.93
2023-03-26T05:07:27.715Z,4.60
2023-03-26T05:09:57.533Z,4.55
2023-03-26T05:12:43.180Z,4.22
2023-03-26T05:15:16.062Z,4.50
2023-03-26T05:18:08.624Z,4.28
2023-03-26T05:20:41.617Z,4.50
2023-03-26T05:23:10.722Z,3.97
2023-03-26T05:25:49.039Z,4.60
2023-03-26T05:28:20.810Z,4.15
2023-03-26T05:30:55.823Z,4.25
2023-03-26T05:33:24.931Z,4.35
2023-03-26T05:36:15.435Z,4.30
2023-03-26T05:38:53.959Z,4.65
2023-03-26T05:41:40.920Z,4.30
2023-03-26T05:44:07.944Z,4.30
2023-03-26T05:46:35.210Z,5.30
2023-03-26T05:49:02.344Z,4.65
2023-03-26T05:51:33.402Z,4.72
2023-03-26T05:54:19.802Z,5.65
2023-03-26T05:57:05.318Z,4.70
2023-03-26T05:59:51.041Z,4.78
2023-03-26T06:02:36.842Z,5.40
2023-03-26T06:05:35.441Z,5.18
2023-03-26T06:08:13.478Z,5.70
2023-03-26T06:10:49.800Z,5.18
2023-03-26T06:13:17.940Z,4.50
2023-03-26T06:15:46.553Z,6.25
2023-03-26T06:18:25.133Z,4.95
2023-03-26T06:21:18.447Z,5.13
2023-03-26T06:23:56.118Z,5.55
2023-03-26T06:26:47.150Z,5.30
2023-03-26T06:32:20.124Z,4.63
2023-03-26T14:39:09.350Z,8.25
2023-03-26T14:41:53.620Z,7.45
2023-03-26T14:44:49.812Z,7.90
2023-03-26T14:47:19.157Z,8.77
2023-03-26T14:50:11.888Z,8.73
2023-03-26T14:52:46.685Z,9.70
2023-03-26T14:55:52.099Z,9.00
2023-03-26T14:58:27.976Z,8.88
2023-03-26T15:01:19.356Z,10.13
2023-03-26T15:04:22.695Z,10.43
2023-03-26T15:07:18.759Z,10.57
2023-03-26T15:10:14.271Z,9.25
2023-03-26T15:13:20.104Z,9.95
2023-03-26T15:16:18.198Z,10.00
2023-03-26T15:18:56.882Z,10.00
2023-03-26T15:21:54.390Z,9.65
2023-03-26T15:24:27.472Z,9.68
2023-03-26T15:26:57.517Z,10.95
2023-03-26T15:29:58.687Z,9.95
2023-03-26T15:32:41.062Z,9.32
2023-03-26T15:35:31.386Z,10.13
2023-03-26T15:38:34.604Z,12.07
2023-03-26T15:41:13.822Z,16.48
2023-03-26T15:44:23.304Z,12.02
2023-03-26T15:47:26.165Z,12.35
2023-03-26T15:50:14.813Z,11.88
2023-03-26T15:52:54.388Z,11.93
2023-03-26T15:56:04.609Z,11.25
2023-03-26T15:58:45.915Z,11.40
2023-03-26T16:01:34.085Z,11.25
2023-03-26T16:04:30.935Z,10.98
2023-03-26T16:07:29.067Z,11.65
2023-03-26T16:10:19.617Z,12.73
2023-03-26T16:13:31.384Z,12.68
2023-03-26T16:16:04.318Z,12.20
2023-03-26T16:18:38.571Z,12.07
2023-03-26T16:21:31.466Z,13.23
2023-03-26T16:24:21.949Z,13.98
2023-03-26T16:26:51.966Z,14.55
2023-03-26T16:29:24.115Z,15.57
2023-03-26T16:32:09.445Z,18.70
2023-03-26T16:34:53.280Z,17.60
2023-03-26T16:37:33.733Z,11.32
2023-03-26T16:40:23.161Z,4.63
2023-03-26T16:43:17.906Z,3.70
2023-03-26T16:46:06.460Z,3.40
2023-03-26T16:49:14.546Z,2.63
2023-03-26T16:51:59.925Z,2.70
2023-03-26T16:54:55.785Z,2.90
2023-03-26T16:57:26.114Z,3.17
2023-03-26T17:00:05.737Z,2.42
2023-03-26T17:02:48.058Z,2.15
2023-03-26T17:05:25.394Z,3.13
2023-03-26T17:08:05.579Z,1.85
2023-03-26T17:11:27.946Z,2.40
2023-03-26T17:14:22.160Z,1.80
2023-03-26T17:19:46.259Z,1.40
2023-03-26T17:22:25.309Z,1.40
2023-03-26T17:27:48.324Z,2.50
2023-03-26T17:30:53.078Z,1.80
2023-03-26T17:33:38.903Z,1.67
2023-03-26T17:36:41.995Z,2.80
2023-03-26T17:39:24.302Z,2.47
2023-03-26T17:42:11.327Z,3.15
2023-03-26T17:44:55.768Z,2.40
2023-03-26T17:47:25.749Z,2.88
2023-03-26T17:50:02.904Z,2.72
2023-03-26T17:52:56.979Z,2.13
2023-03-26T17:55:31.128Z,2.53
2023-03-26T17:58:01.139Z,3.17
2023-03-26T18:00:58.397Z,2.95
2023-03-26T18:03:41.176Z,2.83
2023-03-26T18:06:10.971Z,3.13
2023-03-26T18:09:39.713Z,2.65
2023-03-26T18:12:25.576Z,1.98
2023-03-26T18:15:07.742Z,2.03
2023-03-26T18:17:46.490Z,2.53
2023-03-26T18:20:28.319Z,2.00
2023-03-26T18:22:55.930Z,2.75
2023-03-26T18:25:33.738Z,2.10
2023-03-26T18:28:04.067Z,4.32
2023-03-26T18:30:31.192Z,4.32
2023-03-26T18:33:14.336Z,4.80
2023-03-26T18:35:59.536Z,5.73
2023-03-26T18:38:34.946Z,5.53
2023-03-26T18:41:05.901Z,4.78
2023-03-26T18:43:35.547Z,4.00
2023-03-26T18:46:13.744Z,4.75
2023-03-26T18:48:41.404Z,4.10
2023-03-26T18:51:08.705Z,3.75
2023-03-26T18:53:54.971Z,3.35
2023-03-26T18:56:53.077Z,5.53
2023-03-26T18:59:27.895Z,8.77
2023-03-26T19:02:00.162Z,16.00
2023-03-26T19:04:31.406Z,6.80
2023-03-26T19:06:59.355Z,5.38
2023-03-26T19:09:32.105Z,4.60
2023-03-26T19:12:17.093Z,5.63
2023-03-26T19:15:12.249Z,4.75
2023-03-26T19:17:46.612Z,7.28
2023-03-26T19:20:21.669Z,9.57
2023-03-26T19:22:49.841Z,5.93
2023-03-26T19:25:25.803Z,4.45
2023-03-26T19:27:52.857Z,5.18
2023-03-26T19:30:31.888Z,4.85
2023-03-26T19:33:14.189Z,4.40
2023-03-26T19:35:42.748Z,4.07
2023-03-26T19:38:29.390Z,4.18
2023-03-26T19:40:58.076Z,7.47
2023-03-26T19:43:26.276Z,8.38
2023-03-26T19:45:59.893Z,8.00
2023-03-26T19:48:46.710Z,7.18
2023-03-26T19:51:21.052Z,4.22
2023-03-26T19:53:55.925Z,5.85
2023-03-26T19:56:23.121Z,7.22
2023-03-26T19:58:50.722Z,5.35
2023-03-26T20:01:29.481Z,7.28
2023-03-26T20:04:00.927Z,6.15
2023-03-26T20:06:43.225Z,7.43
2023-03-26T20:09:12.850Z,3.95
2023-03-26T20:11:40.892Z,3.33
2023-03-26T20:14:17.307Z,3.63
2023-03-26T20:16:45.375Z,4.97
2023-03-26T20:19:14.325Z,5.38
2023-03-26T20:21:42.209Z,4.60
2023-03-26T20:24:15.702Z,3.88
2023-03-26T20:26:43.143Z,3.60
2023-03-26T20:29:14.438Z,4.63
2023-03-26T20:31:42.644Z,4.70
2023-03-26T20:34:21.911Z,5.07
2023-03-26T20:36:55.085Z,4.97
2023-03-26T20:39:24.261Z,4.22
2023-03-26T20:41:53.628Z,4.35
2023-03-26T20:44:22.581Z,3.97
2023-03-26T20:46:50.447Z,3.63
2023-03-26T20:49:18.394Z,5.63
2023-03-26T20:51:46.557Z,11.63
2023-03-26T20:54:19.288Z,10.13
2023-03-26T20:56:47.868Z,6.25
2023-03-26T20:59:21.715Z,4.47
2023-03-26T21:01:50.087Z,4.10
2023-03-26T21:04:17.879Z,6.20
2023-03-26T21:06:45.629Z,4.25
2023-03-26T21:09:17.815Z,4.18
2023-03-26T21:11:54.883Z,4.50
2023-03-26T21:14:41.335Z,3.90
2023-03-26T21:17:18.760Z,4.40
2023-03-26T21:19:47.212Z,4.22
2023-03-26T21:22:49.516Z,4.45
2023-03-26T21:25:22.793Z,4.35
2023-03-26T21:28:06.131Z,3.97
2023-03-26T21:30:36.674Z,4.75
2023-03-26T21:33:05.349Z,4.68
2023-03-26T21:35:34.813Z,4.18
2023-03-26T21:38:04.512Z,3.90
2023-03-26T21:40:35.145Z,3.72
2023-03-26T21:43:02.446Z,4.22
2023-03-26T21:45:30.156Z,10.15
2023-03-26T21:47:57.505Z,6.13
2023-03-26T21:50:24.676Z,3.90
2023-03-26T21:52:52.269Z,3.20
2023-03-26T21:55:21.763Z,4.07
2023-03-26T21:58:04.660Z,4.10
2023-03-26T22:00:55.801Z,2.92
2023-03-26T22:03:33.156Z,3.60
2023-03-26T22:06:11.460Z,4.07
2023-03-26T22:08:40.818Z,3.83
2023-03-26T22:11:10.389Z,2.85
2023-03-26T22:13:40.359Z,2.83
2023-03-26T22:16:09.119Z,2.95
2023-03-26T22:18:36.415Z,2.88
2023-03-26T22:21:04.852Z,5.03
2023-03-26T22:23:36.082Z,4.22
2023-03-26T22:26:04.313Z,4.25
2023-03-26T22:28:31.534Z,3.22
2023-03-26T22:30:59.648Z,2.50
2023-03-26T22:33:27.049Z,2.45
2023-03-26T22:35:56.080Z,4.53
2023-03-26T22:38:25.599Z,5.10
2023-03-26T22:40:57.324Z,6.72
2023-03-26T22:43:24.609Z,5.72
2023-03-26T22:45:53.682Z,2.80
2023-03-26T22:48:23.445Z,2.65
2023-03-26T22:51:06.635Z,3.00
2023-03-26T22:53:33.961Z,2.87
2023-03-26T22:56:01.396Z,2.65
2023-03-26T22:58:33.165Z,2.88
2023-03-26T23:01:09.433Z,2.95
2023-03-26T23:03:37.171Z,2.30
2023-03-26T23:06:06.956Z,1.45
2023-03-26T23:08:35.077Z,2.00
2023-03-26T23:11:02.145Z,2.00
2023-03-26T23:13:29.117Z,1.98
2023-03-26T23:15:59.324Z,1.80
2023-03-26T23:18:26.379Z,2.05
2023-03-26T23:20:55.645Z,3.42
2023-03-26T23:23:30.080Z,1.80
2023-03-26T23:25:59.151Z,1.90
2023-03-26T23:28:27.533Z,1.80
2023-03-26T23:30:55.315Z,1.55
2023-03-26T23:33:25.100Z,2.20
2023-03-26T23:36:00.659Z,1.75
2023-03-26T23:38:44.040Z,1.83
2023-03-26T23:41:16.495Z,1.75
2023-03-26T23:43:53.493Z,2.08
2023-03-26T23:46:23.602Z,1.85
2023-03-26T23:48:51.220Z,1.92
2023-03-26T23:51:22.311Z,1.80
2023-03-26T23:53:49.666Z,1.80
2023-03-26T23:56:17.231Z,1.20
2023-03-26T23:58:44.597Z,1.40
